Terminal Aerodrome Forecast
Issued by NWS

Home | Current Version | Previous Version | Text Only | Print | Product List | Glossary On
Versions: 1 2 3 4 5 6 7 8 9 10 11 12 13 14 15 16 17 18 19 20 21 22 23
006
FTUS43 KJKL 112339
TAFSME
TAF
KSME 112339Z 1200/1224 VRB06KT P6SM SCT025 BKN050
     FM120300 VRB03KT P6SM BKN100
     FM121000 VRB05KT P6SM VCSH BKN025 OVC050
     FM121200 26007KT 2SM -SHSN BR SCT008 BKN015 OVC030
      TEMPO 1213/1216 1SM -SHSN BKN007
     FM122000 29008KT 6SM -SHSN BR SCT015 OVC030=

USA.gov is the U.S. government's official web portal to all federal, state and local government web resources and services.